sensor_id;sensor_type;location;lat;lon;timestamp;pressure;altitude;pressure_sealevel;temperature;humidity
51229;BME280;37304;52.216;6.874;2023-04-24T00:03:14;99566.84;;;9.17;100.00
51229;BME280;37304;52.216;6.874;2023-04-24T00:08:15;99570.28;;;9.17;100.00
51229;BME280;37304;52.216;6.874;2023-04-24T00:13:15;99576.16;;;9.23;100.00
51229;BME280;37304;52.216;6.874;2023-04-24T00:18:16;99566.75;;;9.20;100.00
51229;BME280;37304;52.216;6.874;2023-04-24T00:23:16;99574.44;;;9.23;100.00
51229;BME280;37304;52.216;6.874;2023-04-24T00:28:16;99583.03;;;9.24;100.00
51229;BME280;37304;52.216;6.874;2023-04-24T00:33:17;99583.00;;;9.25;100.00
51229;BME280;37304;52.216;6.874;2023-04-24T00:38:18;99594.28;;;9.24;100.00
51229;BME280;37304;52.216;6.874;2023-04-24T00:43:18;99584.81;;;9.23;100.00
51229;BME280;37304;52.216;6.874;2023-04-24T00:48:19;99570.09;;;9.24;100.00
51229;BME280;37304;52.216;6.874;2023-04-24T00:53:20;99584.81;;;9.23;100.00
51229;BME280;37304;52.216;6.874;2023-04-24T00:58:20;99586.59;;;9.21;100.00
51229;BME280;37304;52.216;6.874;2023-04-24T01:08:34;99583.31;;;9.16;100.00
51229;BME280;37304;52.216;6.874;2023-04-24T01:13:38;99583.34;;;9.14;100.00
51229;BME280;37304;52.216;6.874;2023-04-24T01:18:41;99589.31;;;9.16;100.00
51229;BME280;37304;52.216;6.874;2023-04-24T01:23:44;99590.28;;;9.14;100.00
51229;BME280;37304;52.216;6.874;2023-04-24T01:28:44;99576.56;;;9.10;100.00
51229;BME280;37304;52.216;6.874;2023-04-24T01:33:45;99580.00;;;9.11;100.00
51229;BME280;37304;52.216;6.874;2023-04-24T01:38:47;99588.47;;;9.16;100.00
51229;BME280;37304;52.216;6.874;2023-04-24T01:43:48;99585.94;;;9.14;100.00
51229;BME280;37304;52.216;6.874;2023-04-24T01:48:49;99583.34;;;9.14;100.00
51229;BME280;37304;52.216;6.874;2023-04-24T01:53:50;99592.97;;;9.11;100.00
51229;BME280;37304;52.216;6.874;2023-04-24T01:58:52;99578.25;;;9.11;100.00
51229;BME280;37304;52.216;6.874;2023-04-24T02:04:06;99579.00;;;9.15;100.00
51229;BME280;37304;52.216;6.874;2023-04-24T02:09:09;99574.72;;;9.14;100.00
51229;BME280;37304;52.216;6.874;2023-04-24T02:14:10;99573.94;;;9.12;100.00
51229;BME280;37304;52.216;6.874;2023-04-24T02:19:11;99587.78;;;9.11;100.00
51229;BME280;37304;52.216;6.874;2023-04-24T02:24:13;99578.41;;;9.07;100.00
51229;BME280;37304;52.216;6.874;2023-04-24T02:29:17;99586.28;;;9.03;100.00
51229;BME280;37304;52.216;6.874;2023-04-24T02:34:18;99594.25;;;8.97;100.00
51229;BME280;37304;52.216;6.874;2023-04-24T02:39:18;99598.56;;;8.97;100.00
51229;BME280;37304;52.216;6.874;2023-04-24T02:44:22;99599.66;;;8.88;100.00
51229;BME280;37304;52.216;6.874;2023-04-24T02:49:22;99592.00;;;8.85;100.00
51229;BME280;37304;52.216;6.874;2023-04-24T02:54:23;99594.84;;;8.76;100.00
51229;BME280;37304;52.216;6.874;2023-04-24T02:59:24;99600.13;;;8.72;100.00
51229;BME280;37304;52.216;6.874;2023-04-24T03:04:27;99600.31;;;8.66;100.00
51229;BME280;37304;52.216;6.874;2023-04-24T03:09:28;99598.78;;;8.59;100.00
51229;BME280;37304;52.216;6.874;2023-04-24T03:14:34;99609.31;;;8.53;100.00
51229;BME280;37304;52.216;6.874;2023-04-24T03:19:34;99605.06;;;8.50;100.00
51229;BME280;37304;52.216;6.874;2023-04-24T03:24:38;99614.72;;;8.43;100.00
51229;BME280;37304;52.216;6.874;2023-04-24T03:29:39;99615.78;;;8.36;100.00
51229;BME280;37304;52.216;6.874;2023-04-24T03:34:40;99615.72;;;8.39;100.00
51229;BME280;37304;52.216;6.874;2023-04-24T03:39:40;99620.09;;;8.36;100.00
51229;BME280;37304;52.216;6.874;2023-04-24T03:44:40;99616.63;;;8.37;100.00
51229;BME280;37304;52.216;6.874;2023-04-24T03:49:42;99624.47;;;8.34;100.00
51229;BME280;37304;52.216;6.874;2023-04-24T03:54:43;99620.97;;;8.36;100.00
51229;BME280;37304;52.216;6.874;2023-04-24T03:59:44;99632.06;;;8.40;100.00
51229;BME280;37304;52.216;6.874;2023-04-24T04:04:44;99628.75;;;8.36;100.00
51229;BME280;37304;52.216;6.874;2023-04-24T04:09:45;99633.94;;;8.35;100.00
51229;BME280;37304;52.216;6.874;2023-04-24T04:14:45;99628.66;;;8.39;100.00
51229;BME280;37304;52.216;6.874;2023-04-24T04:19:46;99640.78;;;8.37;100.00
51229;BME280;37304;52.216;6.874;2023-04-24T04:24:49;99639.25;;;8.30;100.00
51229;BME280;37304;52.216;6.874;2023-04-24T04:29:50;99646.84;;;8.36;100.00
51229;BME280;37304;52.216;6.874;2023-04-24T04:34:51;99653.16;;;8.26;100.00
51229;BME280;37304;52.216;6.874;2023-04-24T04:39:53;99651.25;;;8.33;100.00
51229;BME280;37304;52.216;6.874;2023-04-24T04:44:53;99659.09;;;8.29;100.00
51229;BME280;37304;52.216;6.874;2023-04-24T04:49:54;99663.56;;;8.23;100.00
51229;BME280;37304;52.216;6.874;2023-04-24T04:54:57;99677.38;;;8.23;100.00
51229;BME280;37304;52.216;6.874;2023-04-24T04:59:57;99673.94;;;8.23;100.00
51229;BME280;37304;52.216;6.874;2023-04-24T05:05:01;99676.25;;;8.34;100.00
51229;BME280;37304;52.216;6.874;2023-04-24T05:10:11;99676.16;;;8.38;100.00
51229;BME280;37304;52.216;6.874;2023-04-24T05:15:35;99687.22;;;8.43;100.00
51229;BME280;37304;52.216;6.874;2023-04-24T05:20:37;99687.38;;;8.37;100.00
51229;BME280;37304;52.216;6.874;2023-04-24T05:25:47;99689.72;;;8.47;100.00
51229;BME280;37304;52.216;6.874;2023-04-24T05:30:50;99693.31;;;8.41;100.00
51229;BME280;37304;52.216;6.874;2023-04-24T05:35:53;99696.13;;;8.33;100.00
51229;BME280;37304;52.216;6.874;2023-04-24T05:40:54;99696.16;;;8.31;100.00
51229;BME280;37304;52.216;6.874;2023-04-24T05:46:00;99706.97;;;8.48;100.00
51229;BME280;37304;52.216;6.874;2023-04-24T05:51:01;99712.03;;;8.52;100.00
51229;BME280;37304;52.216;6.874;2023-04-24T05:56:01;99709.00;;;8.35;100.00
51229;BME280;37304;52.216;6.874;2023-04-24T06:01:04;99713.03;;;8.47;100.00
51229;BME280;37304;52.216;6.874;2023-04-24T06:06:06;99712.09;;;8.51;100.00
51229;BME280;37304;52.216;6.874;2023-04-24T06:11:06;99714.75;;;8.46;100.00
51229;BME280;37304;52.216;6.874;2023-04-24T06:21:36;99717.84;;;8.62;100.00
51229;BME280;37304;52.216;6.874;2023-04-24T06:26:36;99721.13;;;8.69;100.00
51229;BME280;37304;52.216;6.874;2023-04-24T06:31:36;99725.56;;;8.64;100.00
51229;BME280;37304;52.216;6.874;2023-04-24T06:36:37;99720.41;;;8.62;100.00
51229;BME280;37304;52.216;6.874;2023-04-24T06:41:37;99714.53;;;8.55;100.00
51229;BME280;37304;52.216;6.874;2023-04-24T06:46:37;99712.22;;;8.44;100.00
51229;BME280;37304;52.216;6.874;2023-04-24T06:51:38;99722.50;;;8.48;100.00
51229;BME280;37304;52.216;6.874;2023-04-24T06:56:38;99726.16;;;8.40;100.00
51229;BME280;37304;52.216;6.874;2023-04-24T07:01:38;99725.44;;;8.34;100.00
51229;BME280;37304;52.216;6.874;2023-04-24T07:06:39;99727.06;;;8.38;100.00
51229;BME280;37304;52.216;6.874;2023-04-24T07:11:40;99730.78;;;8.26;100.00
51229;BME280;37304;52.216;6.874;2023-04-24T07:16:40;99726.50;;;8.25;100.00
51229;BME280;37304;52.216;6.874;2023-04-24T07:21:41;99731.91;;;8.17;100.00
51229;BME280;37304;52.216;6.874;2023-04-24T07:26:42;99735.53;;;8.08;100.00
51229;BME280;37304;52.216;6.874;2023-04-24T07:31:42;99746.72;;;8.10;100.00
51229;BME280;37304;52.216;6.874;2023-04-24T07:36:42;99758.09;;;8.03;100.00
51229;BME280;37304;52.216;6.874;2023-04-24T07:41:43;99758.09;;;8.03;100.00
51229;BME280;37304;52.216;6.874;2023-04-24T07:46:43;99778.03;;;7.99;100.00
51229;BME280;37304;52.216;6.874;2023-04-24T07:51:44;99780.72;;;7.93;100.00
51229;BME280;37304;52.216;6.874;2023-04-24T07:56:45;99781.97;;;8.14;100.00
51229;BME280;37304;52.216;6.874;2023-04-24T08:01:45;99789.06;;;8.08;100.00
51229;BME280;37304;52.216;6.874;2023-04-24T08:06:47;99792.38;;;8.13;100.00
51229;BME280;37304;52.216;6.874;2023-04-24T08:11:48;99795.94;;;8.09;100.00
51229;BME280;37304;52.216;6.874;2023-04-24T08:16:48;99817.47;;;8.09;100.00
51229;BME280;37304;52.216;6.874;2023-04-24T08:21:49;99819.16;;;8.10;100.00
51229;BME280;37304;52.216;6.874;2023-04-24T08:26:50;99819.97;;;8.12;100.00
51229;BME280;37304;52.216;6.874;2023-04-24T08:31:51;99826.97;;;8.09;100.00
51229;BME280;37304;52.216;6.874;2023-04-24T08:36:54;99846.38;;;8.27;100.00
51229;BME280;37304;52.216;6.874;2023-04-24T08:41:55;99852.34;;;8.32;100.00
51229;BME280;37304;52.216;6.874;2023-04-24T08:46:56;99853.84;;;8.41;100.00
51229;BME280;37304;52.216;6.874;2023-04-24T08:51:56;99865.63;;;8.56;100.00
51229;BME280;37304;52.216;6.874;2023-04-24T08:57:00;99860.56;;;8.48;100.00
51229;BME280;37304;52.216;6.874;2023-04-24T09:02:04;99872.78;;;8.81;100.00
51229;BME280;37304;52.216;6.874;2023-04-24T09:07:06;99877.19;;;8.77;100.00
51229;BME280;37304;52.216;6.874;2023-04-24T09:12:06;99866.03;;;8.73;100.00
51229;BME280;37304;52.216;6.874;2023-04-24T09:17:09;99871.16;;;8.77;100.00
51229;BME280;37304;52.216;6.874;2023-04-24T09:22:09;99896.97;;;8.80;100.00
51229;BME280;37304;52.216;6.874;2023-04-24T09:27:11;99898.00;;;8.72;100.00
51229;BME280;37304;52.216;6.874;2023-04-24T09:32:21;99910.38;;;8.61;100.00
51229;BME280;37304;52.216;6.874;2023-04-24T09:37:28;99926.25;;;8.45;100.00
51229;BME280;37304;52.216;6.874;2023-04-24T09:42:29;99940.44;;;8.29;100.00
51229;BME280;37304;52.216;6.874;2023-04-24T09:47:39;99957.00;;;8.19;100.00
51229;BME280;37304;52.216;6.874;2023-04-24T09:52:44;99975.19;;;8.15;100.00
51229;BME280;37304;52.216;6.874;2023-04-24T09:57:49;99992.59;;;8.09;100.00
51229;BME280;37304;52.216;6.874;2023-04-24T10:02:54;100001.06;;;8.17;100.00
51229;BME280;37304;52.216;6.874;2023-04-24T10:08:02;100009.56;;;8.22;100.00
51229;BME280;37304;52.216;6.874;2023-04-24T10:13:07;100029.94;;;8.39;100.00
51229;BME280;37304;52.216;6.874;2023-04-24T10:18:09;100038.50;;;8.43;100.00
51229;BME280;37304;52.216;6.874;2023-04-24T10:23:10;100034.91;;;8.52;100.00
51229;BME280;37304;52.216;6.874;2023-04-24T10:28:12;100046.91;;;8.54;100.00
51229;BME280;37304;52.216;6.874;2023-04-24T10:33:13;100059.03;;;8.54;100.00
51229;BME280;37304;52.216;6.874;2023-04-24T10:38:16;100067.78;;;8.47;100.00
51229;BME280;37304;52.216;6.874;2023-04-24T10:43:18;100073.69;;;8.55;100.00
51229;BME280;37304;52.216;6.874;2023-04-24T10:48:26;100070.00;;;8.65;100.00
51229;BME280;37304;52.216;6.874;2023-04-24T10:53:28;100086.50;;;8.61;100.00
51229;BME280;37304;52.216;6.874;2023-04-24T10:58:43;100100.75;;;8.37;100.00
51229;BME280;37304;52.216;6.874;2023-04-24T11:03:54;100119.81;;;8.33;100.00
51229;BME280;37304;52.216;6.874;2023-04-24T11:09:02;100126.69;;;8.35;100.00
51229;BME280;37304;52.216;6.874;2023-04-24T11:14:05;100138.59;;;8.44;100.00
51229;BME280;37304;52.216;6.874;2023-04-24T11:19:11;100149.09;;;8.36;100.00
51229;BME280;37304;52.216;6.874;2023-04-24T11:34:47;100183.88;;;8.21;100.00
51229;BME280;37304;52.216;6.874;2023-04-24T11:39:50;100183.84;;;8.23;100.00
51229;BME280;37304;52.216;6.874;2023-04-24T11:44:52;100191.53;;;8.29;100.00
51229;BME280;37304;52.216;6.874;2023-04-24T11:49:53;100202.84;;;8.23;100.00
51229;BME280;37304;52.216;6.874;2023-04-24T11:54:53;100209.28;;;8.51;100.00
51229;BME280;37304;52.216;6.874;2023-04-24T11:59:54;100216.94;;;8.57;100.00
51229;BME280;37304;52.216;6.874;2023-04-24T12:04:54;100221.00;;;8.72;100.00
51229;BME280;37304;52.216;6.874;2023-04-24T12:09:56;100217.50;;;9.17;100.00
51229;BME280;37304;52.216;6.874;2023-04-24T12:14:58;100210.16;;;9.38;100.00
51229;BME280;37304;52.216;6.874;2023-04-24T12:20:04;100213.56;;;9.40;100.00
51229;BME280;37304;52.216;6.874;2023-04-24T12:25:05;100219.22;;;9.18;100.00
51229;BME280;37304;52.216;6.874;2023-04-24T12:30:11;100235.22;;;8.96;100.00
51229;BME280;37304;52.216;6.874;2023-04-24T12:35:13;100252.81;;;8.79;100.00
51229;BME280;37304;52.216;6.874;2023-04-24T12:40:14;100251.09;;;8.78;100.00
51229;BME280;37304;52.216;6.874;2023-04-24T12:45:16;100258.97;;;8.71;100.00
51229;BME280;37304;52.216;6.874;2023-04-24T12:50:16;100259.03;;;8.70;100.00
51229;BME280;37304;52.216;6.874;2023-04-24T12:55:17;100262.72;;;9.02;100.00
51229;BME280;37304;52.216;6.874;2023-04-24T13:00:17;100266.09;;;9.07;100.00
51229;BME280;37304;52.216;6.874;2023-04-24T13:05:18;100264.44;;;9.05;100.00
51229;BME280;37304;52.216;6.874;2023-04-24T13:10:18;100279.16;;;9.02;100.00
51229;BME280;37304;52.216;6.874;2023-04-24T13:15:19;100279.41;;;8.88;100.00
51229;BME280;37304;52.216;6.874;2023-04-24T13:20:20;100282.94;;;8.84;100.00
51229;BME280;37304;52.216;6.874;2023-04-24T13:25:20;100292.41;;;8.85;100.00
51229;BME280;37304;52.216;6.874;2023-04-24T13:30:21;100290.47;;;8.98;100.00
51229;BME280;37304;52.216;6.874;2023-04-24T13:35:21;100297.84;;;9.18;100.00
51229;BME280;37304;52.216;6.874;2023-04-24T13:40:21;100299.72;;;9.12;100.00
51229;BME280;37304;52.216;6.874;2023-04-24T13:45:22;100315.56;;;8.96;100.00
51229;BME280;37304;52.216;6.874;2023-04-24T13:50:22;100310.19;;;8.57;100.00
51229;BME280;37304;52.216;6.874;2023-04-24T13:55:22;100328.59;;;8.38;100.00
51229;BME280;37304;52.216;6.874;2023-04-24T14:00:23;100324.06;;;8.53;100.00
51229;BME280;37304;52.216;6.874;2023-04-24T14:05:23;100317.28;;;8.94;100.00
51229;BME280;37304;52.216;6.874;2023-04-24T14:10:24;100319.38;;;9.22;100.00
51229;BME280;37304;52.216;6.874;2023-04-24T14:15:24;100312.09;;;9.40;100.00
51229;BME280;37304;52.216;6.874;2023-04-24T14:20:24;100322.03;;;9.17;100.00
51229;BME280;37304;52.216;6.874;2023-04-24T14:25:25;100331.59;;;9.15;100.00
51229;BME280;37304;52.216;6.874;2023-04-24T14:30:25;100334.59;;;8.95;100.00
51229;BME280;37304;52.216;6.874;2023-04-24T14:35:26;100340.78;;;8.86;100.00
51229;BME280;37304;52.216;6.874;2023-04-24T14:40:26;100342.59;;;9.27;100.00
51229;BME280;37304;52.216;6.874;2023-04-24T14:45:27;100341.78;;;9.25;100.00
51229;BME280;37304;52.216;6.874;2023-04-24T14:50:27;100353.78;;;9.32;100.00
51229;BME280;37304;52.216;6.874;2023-04-24T14:55:28;100354.38;;;9.45;100.00
51229;BME280;37304;52.216;6.874;2023-04-24T15:00:28;100349.66;;;9.66;100.00
51229;BME280;37304;52.216;6.874;2023-04-24T15:05:29;100368.78;;;9.58;100.00
51229;BME280;37304;52.216;6.874;2023-04-24T15:10:30;100377.53;;;9.07;100.00
51229;BME280;37304;52.216;6.874;2023-04-24T15:15:30;100381.88;;;9.07;100.00
51229;BME280;37304;52.216;6.874;2023-04-24T15:20:31;100387.75;;;9.16;100.00
51229;BME280;37304;52.216;6.874;2023-04-24T15:25:32;100401.69;;;9.09;100.00
51229;BME280;37304;52.216;6.874;2023-04-24T15:30:32;100393.75;;;9.20;100.00
51229;BME280;37304;52.216;6.874;2023-04-24T15:35:33;100380.28;;;9.46;100.00
51229;BME280;37304;52.216;6.874;2023-04-24T15:40:34;100389.84;;;9.43;100.00
51229;BME280;37304;52.216;6.874;2023-04-24T15:45:34;100393.28;;;9.45;100.00
51229;BME280;37304;52.216;6.874;2023-04-24T15:50:35;100391.94;;;9.24;100.00
51229;BME280;37304;52.216;6.874;2023-04-24T15:55:35;100397.28;;;9.14;100.00
51229;BME280;37304;52.216;6.874;2023-04-24T16:00:36;100396.16;;;9.31;100.00
51229;BME280;37304;52.216;6.874;2023-04-24T16:05:37;100400.88;;;9.09;100.00
51229;BME280;37304;52.216;6.874;2023-04-24T16:10:37;100403.47;;;9.09;100.00
51229;BME280;37304;52.216;6.874;2023-04-24T16:15:38;100405.28;;;9.02;100.00
51229;BME280;37304;52.216;6.874;2023-04-24T16:20:39;100412.41;;;8.89;100.00
51229;BME280;37304;52.216;6.874;2023-04-24T16:25:40;100413.38;;;8.83;100.00
51229;BME280;37304;52.216;6.874;2023-04-24T16:30:41;100404.56;;;8.95;100.00
51229;BME280;37304;52.216;6.874;2023-04-24T16:35:41;100406.00;;;9.12;100.00
51229;BME280;37304;52.216;6.874;2023-04-24T16:40:42;100407.94;;;8.99;100.00
51229;BME280;37304;52.216;6.874;2023-04-24T16:45:42;100407.00;;;9.05;100.00
51229;BME280;37304;52.216;6.874;2023-04-24T16:50:42;100416.53;;;9.02;100.00
51229;BME280;37304;52.216;6.874;2023-04-24T16:55:43;100421.66;;;9.04;100.00
51229;BME280;37304;52.216;6.874;2023-04-24T17:00:43;100427.78;;;9.00;100.00
51229;BME280;37304;52.216;6.874;2023-04-24T17:05:44;100430.38;;;9.00;100.00
51229;BME280;37304;52.216;6.874;2023-04-24T17:10:44;100421.13;;;8.85;100.00
51229;BME280;37304;52.216;6.874;2023-04-24T17:15:45;100426.41;;;8.79;100.00
51229;BME280;37304;52.216;6.874;2023-04-24T17:20:45;100426.53;;;8.69;100.00
51229;BME280;37304;52.216;6.874;2023-04-24T17:25:46;100431.66;;;8.74;100.00
51229;BME280;37304;52.216;6.874;2023-04-24T17:30:46;100430.09;;;8.64;100.00
51229;BME280;37304;52.216;6.874;2023-04-24T17:35:46;100438.72;;;8.64;100.00
51229;BME280;37304;52.216;6.874;2023-04-24T17:40:47;100441.34;;;8.61;100.00
51229;BME280;37304;52.216;6.874;2023-04-24T17:45:52;100442.38;;;8.49;100.00
51229;BME280;37304;52.216;6.874;2023-04-24T17:50:58;100440.69;;;8.45;100.00
51229;BME280;37304;52.216;6.874;2023-04-24T17:55:59;100443.38;;;8.39;100.00
51229;BME280;37304;52.216;6.874;2023-04-24T18:01:01;100446.00;;;8.37;100.00
51229;BME280;37304;52.216;6.874;2023-04-24T18:06:02;100458.06;;;8.37;100.00
51229;BME280;37304;52.216;6.874;2023-04-24T18:11:02;100461.53;;;8.37;100.00
51229;BME280;37304;52.216;6.874;2023-04-24T18:16:03;100469.38;;;8.28;100.00
51229;BME280;37304;52.216;6.874;2023-04-24T18:21:03;100471.31;;;8.15;100.00
51229;BME280;37304;52.216;6.874;2023-04-24T18:26:04;100472.25;;;8.08;100.00
51229;BME280;37304;52.216;6.874;2023-04-24T18:31:04;100480.03;;;8.08;100.00
51229;BME280;37304;52.216;6.874;2023-04-24T18:36:06;100473.25;;;7.96;100.00
51229;BME280;37304;52.216;6.874;2023-04-24T18:41:09;100485.34;;;7.94;100.00
51229;BME280;37304;52.216;6.874;2023-04-24T18:46:12;100494.03;;;7.90;100.00
51229;BME280;37304;52.216;6.874;2023-04-24T18:51:14;100489.81;;;7.79;100.00
51229;BME280;37304;52.216;6.874;2023-04-24T18:56:14;100502.84;;;7.73;100.00
51229;BME280;37304;52.216;6.874;2023-04-24T19:01:15;100507.22;;;7.63;100.00
51229;BME280;37304;52.216;6.874;2023-04-24T19:06:15;100512.50;;;7.54;100.00
51229;BME280;37304;52.216;6.874;2023-04-24T19:11:18;100518.56;;;7.48;100.00
51229;BME280;37304;52.216;6.874;2023-04-24T19:16:19;100524.63;;;7.49;100.00
51229;BME280;37304;52.216;6.874;2023-04-24T19:21:19;100530.66;;;7.46;100.00
51229;BME280;37304;52.216;6.874;2023-04-24T19:26:20;100533.28;;;7.45;100.00
51229;BME280;37304;52.216;6.874;2023-04-24T19:31:23;100529.88;;;7.39;100.00
51229;BME280;37304;52.216;6.874;2023-04-24T19:36:23;100539.31;;;7.42;100.00
51229;BME280;37304;52.216;6.874;2023-04-24T19:41:23;100542.81;;;7.35;100.00
51229;BME280;37304;52.216;6.874;2023-04-24T19:46:23;100537.66;;;7.35;100.00
51229;BME280;37304;52.216;6.874;2023-04-24T19:51:24;100531.66;;;7.31;100.00
51229;BME280;37304;52.216;6.874;2023-04-24T19:56:24;100535.13;;;7.30;100.00
51229;BME280;37304;52.216;6.874;2023-04-24T20:01:25;100543.78;;;7.20;100.00
51229;BME280;37304;52.216;6.874;2023-04-24T20:06:25;100539.50;;;7.20;100.00
51229;BME280;37304;52.216;6.874;2023-04-24T20:11:26;100536.03;;;7.21;100.00
51229;BME280;37304;52.216;6.874;2023-04-24T20:16:26;100541.22;;;7.21;100.00
51229;BME280;37304;52.216;6.874;2023-04-24T20:21:27;100534.34;;;7.17;100.00
51229;BME280;37304;52.216;6.874;2023-04-24T20:26:27;100535.22;;;7.16;100.00
51229;BME280;37304;52.216;6.874;2023-04-24T20:31:28;100530.03;;;7.14;100.00
51229;BME280;37304;52.216;6.874;2023-04-24T20:36:29;100535.25;;;7.08;100.00
51229;BME280;37304;52.216;6.874;2023-04-24T20:41:29;100536.97;;;7.14;100.00
51229;BME280;37304;52.216;6.874;2023-04-24T20:46:30;100542.22;;;7.02;100.00
51229;BME280;37304;52.216;6.874;2023-04-24T20:51:30;100537.03;;;7.00;100.00
51229;BME280;37304;52.216;6.874;2023-04-24T20:56:31;100530.22;;;6.93;100.00
51229;BME280;37304;52.216;6.874;2023-04-24T21:01:32;100532.78;;;6.93;100.00
51229;BME280;37304;52.216;6.874;2023-04-24T21:06:32;100529.34;;;6.94;100.00
51229;BME280;37304;52.216;6.874;2023-04-24T21:11:32;100536.25;;;6.92;100.00
51229;BME280;37304;52.216;6.874;2023-04-24T21:16:33;100538.84;;;6.84;100.00
51229;BME280;37304;52.216;6.874;2023-04-24T21:21:33;100536.28;;;6.85;100.00
51229;BME280;37304;52.216;6.874;2023-04-24T21:26:34;100544.94;;;6.77;100.00
51229;BME280;37304;52.216;6.874;2023-04-24T21:31:34;100557.00;;;6.75;100.00
51229;BME280;37304;52.216;6.874;2023-04-24T21:36:34;100559.63;;;6.70;100.00
51229;BME280;37304;52.216;6.874;2023-04-24T21:41:35;100555.38;;;6.53;100.00
51229;BME280;37304;52.216;6.874;2023-04-24T21:46:35;100567.44;;;6.48;100.00
51229;BME280;37304;52.216;6.874;2023-04-24T21:51:36;100564.88;;;6.48;100.00
51229;BME280;37304;52.216;6.874;2023-04-24T21:56:36;100567.44;;;6.48;100.00
51229;BME280;37304;52.216;6.874;2023-04-24T22:01:36;100576.06;;;6.47;100.00
51229;BME280;37304;52.216;6.874;2023-04-24T22:06:37;100578.66;;;6.46;100.00
51229;BME280;37304;52.216;6.874;2023-04-24T22:11:37;100573.50;;;6.46;100.00
51229;BME280;37304;52.216;6.874;2023-04-24T22:16:38;100570.06;;;6.44;100.00
51229;BME280;37304;52.216;6.874;2023-04-24T22:21:41;100571.81;;;6.34;100.00
51229;BME280;37304;52.216;6.874;2023-04-24T22:26:41;100578.72;;;6.30;100.00
51229;BME280;37304;52.216;6.874;2023-04-24T22:31:43;100574.38;;;6.37;100.00
51229;BME280;37304;52.216;6.874;2023-04-24T22:36:44;100588.16;;;6.36;100.00
51229;BME280;37304;52.216;6.874;2023-04-24T22:41:44;100582.13;;;6.34;100.00
51229;BME280;37304;52.216;6.874;2023-04-24T22:46:45;100578.72;;;6.25;100.00
51229;BME280;37304;52.216;6.874;2023-04-24T22:51:46;100584.72;;;6.29;100.00
51229;BME280;37304;52.216;6.874;2023-04-24T22:56:47;100593.31;;;6.28;100.00
51229;BME280;37304;52.216;6.874;2023-04-24T23:01:47;100588.19;;;6.26;100.00
51229;BME280;37304;52.216;6.874;2023-04-24T23:06:48;100600.22;;;6.28;100.00
51229;BME280;37304;52.216;6.874;2023-04-24T23:11:48;100601.09;;;6.31;100.00
51229;BME280;37304;52.216;6.874;2023-04-24T23:16:49;100608.81;;;6.28;100.00
51229;BME280;37304;52.216;6.874;2023-04-24T23:21:49;100605.38;;;6.29;100.00
51229;BME280;37304;52.216;6.874;2023-04-24T23:26:50;100602.78;;;6.41;100.00
51229;BME280;37304;52.216;6.874;2023-04-24T23:31:51;100617.41;;;6.43;100.00
51229;BME280;37304;52.216;6.874;2023-04-24T23:36:51;100625.09;;;6.50;100.00
51229;BME280;37304;52.216;6.874;2023-04-24T23:41:52;100617.38;;;6.47;100.00
51229;BME280;37304;52.216;6.874;2023-04-24T23:46:52;100632.91;;;6.33;100.00
51229;BME280;37304;52.216;6.874;2023-04-24T23:51:53;100618.28;;;6.23;100.00
51229;BME280;37304;52.216;6.874;2023-04-24T23:56:53;100627.75;;;6.24;100.00
